Begues, Spain
Current Conditions -  °F | °C
As of 11:30 AM on Saturday 25 Oct 2014 (Local Time) from LEBL Reporting Station
Clear Clear  
Wind Chill: 68°   Ceiling: Unl
Heat Index: 68°   Visibility: 6mi
Dew Point: 52°   Wind: 8mph
Humidity: 56%   Direction: 310°NW
Pressure: 30.09"   Gusts: NA
Location:  41.33°N, 1.93°E
Report Text: LEBL 250930Z 31007KT CAVOK 20/11 Q1019 NOSIG
Loading
Personal Weather Stations






























Interactive Weather Map
Tropical Storm Tracking
New forecast layout! Learn more

10-Day Weather Forecast

Advertisements
Track Severe Weather on mobile